Terminal Aerodrome Forecast
Issued by NWS Upton, NY

Home | Current Version | Previous Version | Text Only | Print | Product List | Glossary On
Versions: 1 2 3 4 5 6 7 8 9 10 11 12 13 14 15 16 17 18 19 20 21 22 23 24 25 26 27 28 29 30 31 32 33 34 35 36 37
241
FTUS41 KOKX 282339
TAFEWR
TAF
KEWR 282339Z 2900/3006 04010KT 3SM -RA BR OVC004
     FM290300 02008KT 4SM BR OVC006
     FM290600 36005KT 5SM BR OVC012
     FM290800 34008KT P6SM BKN020
     FM291200 34010G17KT P6SM BKN050
     FM291500 34014G20KT P6SM SCT050 SCT250=

USA.gov is the U.S. government's official web portal to all federal, state and local government web resources and services.